Station: Parndana

  Atmospheric Gas Attenuation - ITU Rec 676-11   --------------- db/100km ---------------
Date Time Temp RH % AH g/m3 Dew Point Wind Direction Speed kph Gust kph Barometer mB Rainfall Since 9am 24GHz 47GHz 76GHz 122GHz 134GHz 241GHz
17 01:10 7.4 95 7.56 6.6 7 7 1013.1 0 17.7 26.0 38.7 101.4 92.2 316.0
17 01:00 7.5 95 7.61 6.8 7 7 1013.1 0 17.8 26.1 38.9 101.9 92.8 318.0
17 00:50 7.5 94 7.53 6.6 6 7 1013.1 0 17.6 26.0 38.5 101.0 91.7 314.1
17 00:40 7.3 94 7.43 6.4 7 7 1013.1 0 17.4 25.9 38.2 100.1 90.5 310.1
17 00:30 7.3 93 7.35 6.2 9 9 1013.1 0 17.2 25.7 37.9 99.2 89.4 306.2
17 00:20 7.5 94 7.53 6.6 9 9 1013.1 0 17.6 26.0 38.5 101.0 91.7 314.1
17 00:10 7.4 94 7.48 6.5 9 9 1013.1 0 17.5 25.9 38.4 100.5 91.1 312.1
17 00:00 7 93 7.21 5.9 7 7 1013.1 0 16.9 25.6 37.4 98.0 87.9 300.6
16 23:50 6.8 93 7.12 5.7 7 7 1013.1 0 16.7 25.5 37.1 97.3 86.8 297.1
16 23:40 6.7 92 6.99 5.5 7 7 1013.1 0 16.5 25.3 36.6 96.0 85.2 291.2
16 23:30 7 92 7.13 5.8 7 9 1013.1 0 16.7 25.4 37.1 97.1 86.8 296.8
16 23:20 7.1 92 7.18 5.9 7 7 1013.1 0 16.8 25.5 37.2 97.6 87.3 298.8
16 23:10 7.1 92 7.18 5.9 7 7 1013.1 0 16.8 25.5 37.2 97.6 87.3 298.8
16 23:00 6.9 92 7.09 5.7 7 11 1013.1 0 16.7 25.4 37.0 96.8 86.3 295.3
16 22:50 6.8 91 6.96 5.4 9 9 1013.1 0 16.4 25.2 36.5 95.5 84.7 289.4
16 22:40 7.1 91 7.1 5.7 7 7 1013.1 0 16.7 25.4 36.9 96.7 86.2 295.0
16 22:30 7.3 90 7.11 5.8 9 9 1013.1 0 16.7 25.3 36.9 96.5 86.1 294.7
16 22:20 8.1 90 7.49 6.5 7 9 1013.1 0 17.5 25.7 38.1 99.8 90.4 309.8
16 22:10 8.1 91 7.58 6.7 7 9 1013.1 0 17.7 25.9 38.4 100.8 91.7 314.1
16 22:00 8.1 92 7.66 6.9 6 7 1013.1 0 17.8 26.0 38.8 101.6 92.8 318.0
16 21:50 8.1 93 7.74 7 7 7 1013.1 0 18.0 26.1 39.1 102.5 93.9 321.8
16 21:40 8.1 94 7.82 7.2 6 6 1013.1 0 18.2 26.3 39.4 103.4 95.0 325.7
16 21:30 7.9 94 7.72 7 4 6 1013.1 0 18.0 26.2 39.1 102.6 93.8 321.7
16 21:20 7.4 94 7.48 6.5 6 6 1013.1 0 17.5 25.9 38.4 100.5 91.1 312.1
16 21:10 7.8 94 7.67 6.9 7 7 1013.1 0 17.9 26.1 39.0 102.2 93.3 319.7
16 21:00 7.8 94 7.67 6.9 6 7 1013.1 0 17.9 26.1 39.0 102.2 93.3 319.7
16 20:50 8 94 7.77 7.1 6 6 1013.1 0 18.1 26.2 39.3 103.0 94.4 323.7
16 20:40 7.8 94 7.67 6.9 7 7 1013.1 0 17.9 26.1 39.0 102.2 93.3 319.7
16 20:30 7.5 93 7.45 6.4 2 6 1013.1 0 17.4 25.8 38.2 100.1 90.6 310.3
16 20:20 7.8 93 7.59 6.7 0 0 1013.1 0 17.7 26.0 38.6 101.3 92.2 315.8
16 20:10 7.2 91 7.15 5.8 0 0 1013.1 0 16.8 25.4 37.1 97.1 86.8 297.0
16 20:00 8.6 91 7.82 7.2 4 6 1013.1 0 18.2 26.1 39.2 102.8 94.4 323.6
16 19:50 8.9 91 7.97 7.5 6 6 1013.1 0 18.5 26.3 39.7 104.1 96.1 329.6
16 19:40 8.9 91 7.97 7.5 6 6 1013.1 0 18.5 26.3 39.7 104.1 96.1 329.6
16 19:30 8.4 90 7.64 6.9 6 9 1013.1 0 17.8 25.9 38.5 101.0 92.1 315.8
16 19:20 8.7 89 7.7 7 9 9 1013.1 0 17.9 25.9 38.6 101.3 92.6 317.5
16 19:10 9 90 7.94 7.4 9 11 1013.1 0 18.4 26.2 39.5 103.6 95.5 327.8
16 19:00 8.9 90 7.89 7.4 11 17 1013.1 0 18.3 26.2 39.3 103.2 95.0 325.8
16 18:50 8.3 86 7.25 6.1 13 15 1013.1 0 16.9 25.3 37.0 96.9 86.9 297.6
16 18:40 9.8 85 7.89 7.5 6 6 1013.1 0 18.3 25.9 38.9 102.0 93.8 322.0
16 18:30 10.2 86 8.19 8 7 9 1013.1 0 18.9 26.3 39.9 104.8 97.4 334.7
16 18:20 10.2 85 8.09 7.8 9 9 1013.1 0 18.7 26.1 39.5 103.7 96.1 329.9
16 18:10 10.3 84 8.05 7.7 9 11 1013.1 0 18.6 26.0 39.3 103.1 95.4 327.6
16 18:00 10.3 83 7.95 7.5 7 9 1013.1 0 18.4 25.8 38.9 102.0 94.1 322.8
16 17:50 10.4 80 7.71 7.2 6 7 1013.1 0 17.8 25.4 37.9 99.2 90.7 311.1
16 17:40 10.7 80 7.86 7.4 7 9 1013.1 0 18.1 25.6 38.3 100.5 92.4 316.9
16 17:30 11.1 79 7.96 7.6 7 9 1013.1 0 18.3 25.6 38.5 101.1 93.2 320.0
16 17:20 11.3 78 7.96 7.6 7 9 1013.1 0 18.3 25.6 38.4 100.8 93.0 319.2
16 17:10 11.4 77 7.9 7.5 6 6 1013.1 0 18.2 25.4 38.1 100.0 92.1 316.0
16 17:00 11.8 76 8 7.7 7 9 1013.1 0 18.4 25.5 38.4 100.6 92.9 319.0
16 16:50 12.4 74 8.09 7.9 9 9 1013.1 0 18.6 25.5 38.4 100.8 93.4 320.7
16 16:40 12.9 70 7.89 7.7 7 7 1013.1 0 18.1 25.0 37.4 98.0 90.2 309.5
16 16:30 13.2 70 8.04 7.9 6 7 1013.1 0 18.4 25.2 37.8 99.2 91.8 315.2
16 16:20 13.5 70 8.19 8.1 7 7 1013.1 0 18.7 25.3 38.3 100.5 93.4 320.9
16 16:10 13.6 70 8.24 8.2 7 9 1013.1 0 18.8 25.4 38.5 100.9 93.9 322.7
16 16:00 13.5 69 8.07 7.9 7 11 1013.1 0 18.5 25.1 37.8 99.2 91.8 315.4
16 15:50 13.8 68 8.1 8 9 9 1013.1 0 18.5 25.1 37.8 99.1 91.8 315.5
16 15:40 14.2 67 8.18 8.3 7 9 1013.1 0 18.7 25.1 37.9 99.5 92.4 317.6
16 15:30 14.3 68 8.35 8.5 7 13 1013.1 0 19.0 25.3 38.5 101.1 94.5 324.9
16 15:20 14.2 66 8.06 7.9 6 6 1013.1 0 18.4 24.9 37.5 98.2 90.9 312.1
16 15:10 13.8 70 8.34 8.4 6 6 1013.1 0 19.0 25.5 38.8 101.7 95.0 326.5
16 15:00 13.4 70 8.14 8 4 6 1013.1 0 18.6 25.3 38.2 100.1 92.8 319.0
16 14:50 13.1 73 8.33 8.5 6 6 1013.1 0 19.0 25.7 39.1 102.5 95.7 328.9
16 14:40 13.2 73 8.38 8.6 6 7 1013.1 0 19.1 25.7 39.2 102.9 96.2 330.8
16 14:30 13.1 72 8.22 8.2 7 9 1013.1 0 18.8 25.5 38.6 101.3 94.2 323.9
16 14:20 13.4 72 8.37 8.4 7 9 1013.1 0 19.1 25.6 39.1 102.5 95.9 329.5
16 14:10 14.2 66 8.06 8.1 9 11 1013.1 0 18.4 24.9 37.5 98.2 90.9 312.1
16 14:00 13.8 67 7.98 7.8 7 13 1013.1 0 18.3 24.9 37.3 97.9 90.3 310.1
16 13:50 13.6 67 7.89 7.6 9 11 1013.1 0 18.1 24.8 37.1 97.2 89.4 306.8
16 13:40 14.5 66 8.21 8.2 11 13 1013.1 0 18.7 25.1 37.9 99.4 92.4 317.7
16 13:30 14.7 64 8.06 8 6 7 1013.1 0 18.4 24.8 37.2 97.6 90.3 310.2
16 13:20 13.9 65 7.79 7.4 7 7 1013.1 0 17.9 24.6 36.5 95.8 87.7 301.2
16 13:10 13.4 67 7.79 7.4 9 11 1013.1 0 17.9 24.7 36.8 96.4 88.3 303.1
16 13:00 13.9 66 7.91 7.7 9 13 1013.1 0 18.1 24.8 37.0 97.0 89.3 306.6
16 12:50 14.4 67 8.28 8.5 13 15 1013.1 0 18.9 25.2 38.2 100.3 93.5 321.3
16 12:40 13.9 65 7.79 7.4 6 6 1013.1 0 17.9 24.6 36.5 95.8 87.7 301.2
16 12:30 13.6 66 7.77 7.4 9 15 1013.1 0 17.8 24.6 36.6 95.9 87.8 301.4
16 12:20 13.9 68 8.15 8.1 11 11 1013.1 0 18.6 25.1 38.0 99.5 92.4 317.4
16 12:10 13.9 68 8.15 8.1 7 9 1013.1 0 18.6 25.1 38.0 99.5 92.4 317.4
16 12:00 14.1 71 8.62 8.9 11 15 1013.1 0 19.6 25.8 39.7 104.2 98.3 338.1
16 11:50 14 71 8.56 8.8 11 13 1013.1 0 19.5 25.8 39.5 103.7 97.6 335.8
16 11:40 13.5 70 8.19 8.1 13 15 1013.1 0 18.7 25.3 38.3 100.5 93.4 320.9
16 11:30 13.4 69 8.02 7.8 13 17 1013.1 0 18.4 25.1 37.7 98.8 91.3 313.5
16 11:20 13.3 70 8.09 7.9 13 15 1013.1 0 18.5 25.2 38.0 99.6 92.3 317.1
16 11:10 13.3 72 8.32 8.5 15 17 1013.1 0 19.0 25.6 38.9 102.1 95.3 327.6
16 11:00 13.3 73 8.43 8.6 13 19 1013.1 0 19.3 25.8 39.4 103.3 96.8 332.7
16 10:50 13.1 74 8.44 8.7 17 19 1013.1 0 19.3 25.8 39.5 103.6 97.2 334.0
16 10:40 12.8 74 8.29 8.4 15 17 1013.1 0 19.0 25.7 39.0 102.4 95.5 328.3
16 10:30 12.7 77 8.57 8.8 15 20 1013.1 0 19.6 26.2 40.2 105.6 99.4 341.8
16 10:20 12.6 76 8.41 8.6 17 19 1013.1 0 19.2 25.9 39.6 104.0 97.4 334.8
16 10:10 12.5 80 8.8 9.1 15 17 1013.1 0 20.1 26.6 41.3 108.4 102.8 353.6
16 10:00 12.2 81 8.74 9 13 17 1013.1 0 20.0 26.6 41.2 108.1 102.3 352.1
16 09:50 11.8 82 8.63 8.8 15 15 1013.1 0 19.8 26.5 40.9 107.5 101.4 348.6
16 09:40 11.4 84 8.62 8.8 9 11 1013.1 0 19.7 26.6 41.1 107.9 101.8 350.0
16 09:30 11 85 8.51 8.6 11 13 1013.1 0 19.5 26.6 40.9 107.2 100.8 346.5
16 09:20 10.7 87 8.55 8.6 9 11 1013.1 0 19.6 26.7 41.2 108.1 101.7 349.7
16 09:10 10.4 89 8.58 8.6 7 9 1013.1 0 19.7 26.9 41.5 108.8 102.5 352.5
16 09:00 9.7 91 8.39 8.3 6 7 1013.1 0 19.3 26.8 41.0 107.7 100.8 346.5
16 08:50 9.2 92 8.22 7.9 6 6 1013.1 0 19.0 26.6 40.6 106.5 99.1 340.4
16 08:40 8.6 93 7.99 7.5 6 7 1013.1 0 18.5 26.4 39.9 104.7 96.7 331.9

Last Refresh: 17-Jul-2020 01:21:10

Most of the information presented on this site is sourced from the Bureau of Meteorology.  Copyright in all material sourced from the Bureau of Meteorology resides with the Commonwealth of Australia.